Aviation Digital Data Service (ADDS)

Output produced by METARs form (1726 UTC 22 July 2014)
found at http://www.aviationweather.gov/adds/metars/
 
KUNV 221653Z 00000KT 10SM SCT024 26/21 A3015
KUNV 221553Z 22004KT 10SM BKN020 25/20 A3017
KUNV 221453Z 23004KT 7SM HZ OVC020 24/20 A3019
KUNV 221353Z 23005KT 6SM HZ OVC020 23/20 A3019
KUNV 221253Z 00000KT 5SM BR OVC020 22/20 A3021
KUNV 221153Z 00000KT 5SM BR OVC020 21/19 A3021
KUNV 221053Z 00000KT 5SM BR OVC020 20/19 A3020
KUNV 220953Z 00000KT 5SM BR OVC020 20/19 A3018
KUNV 220935Z AUTO 00000KT 5SM BR OVC014 20/19 A3018 RMK AO2 T01970191
KUNV 220915Z AUTO 00000KT 7SM OVC014 20/19 A3018 RMK AO2 T01980190
KUNV 220855Z AUTO 00000KT 7SM OVC014 20/19 A3018 RMK AO2 T02010190
KUNV 220835Z AUTO 00000KT 5SM BR OVC014 20/19 A3018 RMK AO2 T01970190
KUNV 220815Z AUTO 00000KT 7SM OVC014 20/19 A3018 RMK AO2 T01970190
KUNV 220755Z AUTO 00000KT 4SM BR OVC014 19/19 A3018 RMK AO2 T01920190
KUNV 220735Z AUTO 00000KT 3SM BR BKN014 19/19 A3017 RMK AO2 T01910188
KUNV 220715Z AUTO 00000KT 7SM SCT110 19/19 A3017 RMK AO2 T01940186
KUNV 220655Z AUTO 00000KT 5SM BR OVC110 19/19 A3017 RMK AO2 T01930188
KUNV 220635Z AUTO 00000KT 7SM BKN016 BKN100 20/19 A3018 RMK AO2 T01980188
KUNV 220615Z AUTO 00000KT 7SM OVC016 20/19 A3018 RMK AO2 T01960188
KUNV 220555Z AUTO 00000KT 7SM OVC018 19/19 A3018 RMK AO2 T01910185 10235 20190
KUNV 220535Z AUTO 00000KT 7SM SCT018 19/19 A3019 RMK AO2 T01920185
KUNV 220515Z AUTO 00000KT 10SM SCT020 SCT035 20/19 A3019 RMK AO2 T01990189
KUNV 220455Z AUTO 00000KT 7SM BKN018 19/18 A3020 RMK AO2 T01910182
KUNV 220435Z AUTO 25003KT 7SM CLR 19/19 A3020 RMK AO2 T01920185
KUNV 220415Z AUTO 28004KT 10SM CLR 20/19 A3019 RMK AO2 T02030190
KUNV 220355Z AUTO 25005KT 10SM CLR 21/19 A3018 RMK AO2 T02050188 402540165
KUNV 220335Z AUTO 24004KT 10SM CLR 20/19 A3018 RMK AO2 T02040188
KUNV 220315Z AUTO 00000KT 10SM CLR 20/19 A3018 RMK AO2 T02020186
KUNV 220255Z AUTO 00000KT 10SM SCT065 SCT080 21/19 A3018 RMK AO2 T02090190
KUNV 220235Z AUTO 00000KT 10SM CLR 21/19 A3019 RMK AO2 T02110191
KUNV 220215Z AUTO 00000KT 10SM SCT032 SCT055 SCT070 21/19 A3019 RMK AO2 T02100189
KUNV 220155Z AUTO 20003KT 10SM SCT032 SCT070 SCT095 20/18 A3019 RMK AO2 T01990183
KUNV 220053Z 00000KT 8SM FEW060 22/19 A3018
KUNV 212353Z 18003KT 10SM FEW030 24/20 A3017
KUNV 212253Z 16004KT 10SM SCT023 SCT030 25/20 A3017
KUNV 212153Z 17003KT 10SM BKN030 BKN038 25/20 A3017
KUNV 212053Z 14004KT 10SM SCT023 BKN034 BKN048 25/20 A3017
KUNV 211953Z 15006KT 10SM SCT022 SCT031 BKN041 24/19 A3018
KUNV 211853Z 19005KT 10SM BKN032 OVC041 24/19 A3019
KUNV 211753Z 21005KT 10SM OVC026 23/19 A3020
KUNV 211653Z 17005KT 10SM SCT019 SCT027 OVC042 23/19 A3020
KUNV 211553Z 00000KT 10SM SCT019 BKN025 OVC050 22/18 A3021
KUNV 211453Z 00000KT 8SM BKN020 OVC050 22/18 A3021
KUNV 211353Z 00000KT 8SM OVC020 22/18 A3022
KUNV 211253Z 00000KT 8SM OVC020 20/18 A3021
KUNV 211153Z 00000KT 10SM OVC020 19/17 A3020
KUNV 211053Z 00000KT 10SM OVC020 18/17 A3018
KUNV 210953Z 00000KT 10SM OVC018 17/16 A3017
KUNV 210935Z AUTO 00000KT 10SM BKN018 17/16 A3016 RMK AO2 T01720161
KUNV 210915Z AUTO 00000KT 10SM SCT018 SCT065 SCT085 17/16 A3016 RMK AO2 T01690159
KUNV 210855Z AUTO 00000KT 10SM SCT110 17/16 A3015 RMK AO2 LTG DSNT SW T01700160
KUNV 210835Z AUTO 00000KT 10SM BKN110 17/16 A3014 RMK AO2 T01700162
KUNV 210815Z AUTO 00000KT 10SM BKN100 17/16 A3013 RMK AO2 T01710160
KUNV 210755Z AUTO 00000KT 10SM BKN100 18/16 A3013 RMK AO2 T01760161
KUNV 210735Z AUTO 00000KT 10SM BKN100 17/16 A3013 RMK AO2 T01740161
KUNV 210715Z AUTO 00000KT 10SM BKN100 17/16 A3014 RMK AO2 T01710161
KUNV 210655Z AUTO 00000KT 10SM OVC100 18/16 A3014 RMK AO2 T01760160
KUNV 210635Z AUTO 00000KT 10SM OVC100 18/16 A3014 RMK AO2 T01810161
KUNV 210615Z AUTO 00000KT 10SM OVC100 18/16 A3015 RMK AO2 T01760160
KUNV 210555Z AUTO 00000KT 10SM BKN100 18/16 A3015 RMK AO2 T01830160 10223 20177
KUNV 210535Z AUTO 00000KT 10SM OVC090 18/16 A3015 RMK AO2 T01830160